LiveATC.Net - Listen to live air traffic control over the Internet! Contact LiveATC.net for advertising information


ICAO: KBMG  IATA: BMG   Airport: Monroe County Airport
City: Bloomington   State/Province: Indiana
Country: United States   Continent: North America
KBMG METAR Weather: KBMG 241153Z 02007KT 10SM CLR 16/14 A3007 RMK AO2 SLP179 70166 T01610139 10161 20150 53012
KBMG Flight Activity (FlightAware)
KBMG Airport Info   (AirNav) (iFlightPlanner)
KBMG Ground/Tower
Feed Status: DOWN
Last heard on: 2014-07-18 16:42:03 (5 days 19 hours 39 minutes ago)
KBMG Ground/Tower Audio Archives
FacilityFrequency
Bloomington Ground121.900
Bloomington Tower120.775
Emergency/Guard121.500


NOTICE

Unauthorized use prohibited. See LiveATC.net Terms of Service


Find LiveATC Audio Streams


Airport/ARTCC Code

Frequency
(e.g., 124.400, 128.75)
Site-wide search

Browse LiveATC Feeds
LiveATC Coverage Map
Top 50 LiveATC Feeds
Bad Weather Areas

LiveATC FAQ
Offer a LiveATC Feed
Contact LiveATC.net
Press Inquiries

LiveATC on iPhone
LiveATC on Android

LiveATC Mobile
(Mobile browser)

ATC Audio Archives
Interesting Recordings

LiveATC Forums


Home Page
About LiveATC.net
Make a Donation
LiveATC Bookstore

Terms of Use
Privacy Policy

ATC/Radar Sites
U.S. ARTCC Freqs
Canadian Air Freqs

AIRMETs/SIGMETs

FAA Airport Status
Nat'l Airspace Status
Arrival Demand Charts


Server Software By:
Icecast.org
Liquidsoap

Please make a donation to help us keep growing!